Time;durP1;ratioP1;P1;durP2;ratioP2;P2;SDS_P1;SDS_P2;PMS_P1;PMS_P2;Temp;Humidity;BMP_temperature;BMP_pressure;BME280_temperature;BME280_humidity;BME280_pressure;Samples;Min_cycle;Max_cycle;Signal;HPM_P1;HPM_P2
2023/09/08 00:00:56;;;;;;;14.23;13.45;;;19.00;99.90;;;;;;4968638;28;20077;-85
2023/09/08 00:03:22;;;;;;;13.75;13.00;;;19.00;99.90;;;;;;4990079;28;20517;-85
2023/09/08 00:05:47;;;;;;;13.30;12.55;;;19.00;99.90;;;;;;4986289;28;20086;-86
2023/09/08 00:08:13;;;;;;;12.77;12.07;;;18.90;99.90;;;;;;4987877;28;20172;-85
2023/09/08 00:10:39;;;;;;;11.32;10.65;;;18.90;99.90;;;;;;5004223;28;20046;-85
2023/09/08 00:13:04;;;;;;;9.48;8.88;;;18.90;99.90;;;;;;4970780;28;20050;-86
2023/09/08 00:15:33;;;;;;;10.40;9.80;;;18.90;99.90;;;;;;4987304;28;20538;-85
2023/09/08 00:17:59;;;;;;;9.43;8.82;;;19.00;99.90;;;;;;4987146;28;20595;-84
2023/09/08 00:20:24;;;;;;;8.82;8.27;;;19.00;99.90;;;;;;4973361;28;20045;-85
2023/09/08 00:22:50;;;;;;;9.73;9.13;;;19.00;99.90;;;;;;4991960;28;20239;-85
2023/09/08 00:25:16;;;;;;;7.75;7.25;;;18.90;99.90;;;;;;4990496;28;20130;-84
2023/09/08 00:27:41;;;;;;;8.95;8.38;;;19.10;99.90;;;;;;4974657;28;20073;-84
2023/09/08 00:30:07;;;;;;;8.32;7.82;;;19.00;99.90;;;;;;4991388;28;20064;-85
2023/09/08 00:32:33;;;;;;;7.75;7.25;;;19.00;99.90;;;;;;4998956;28;20050;-85
2023/09/08 00:34:58;;;;;;;7.47;6.97;;;19.00;99.90;;;;;;4988037;28;20703;-85
2023/09/08 00:37:24;;;;;;;7.55;7.05;;;18.90;99.90;;;;;;4990227;28;20045;-85
2023/09/08 00:39:50;;;;;;;6.97;6.50;;;18.80;99.90;;;;;;4976811;28;20042;-84
2023/09/08 00:42:15;;;;;;;6.35;5.95;;;18.70;99.90;;;;;;5009093;28;20049;-85
2023/09/08 00:44:41;;;;;;;6.18;5.78;;;18.60;99.90;;;;;;4984874;28;20053;-85
2023/09/08 00:47:07;;;;;;;6.03;5.63;;;18.70;99.90;;;;;;4984655;28;20045;-86
2023/09/08 00:49:33;;;;;;;4.85;4.55;;;18.60;99.90;;;;;;4986971;28;20676;-86
2023/09/08 00:51:59;;;;;;;3.70;3.50;;;18.60;99.90;;;;;;4988053;28;20046;-85
2023/09/08 00:54:24;;;;;;;4.45;4.15;;;18.50;99.90;;;;;;4986722;28;20057;-84
2023/09/08 00:56:57;;;;;;;4.85;4.55;;;18.40;99.90;;;;;;4991390;28;20048;-85
2023/09/08 00:59:24;;;;;;;5.05;4.75;;;18.40;99.90;;;;;;4968639;28;20041;-85
2023/09/08 01:01:50;;;;;;;4.47;4.18;;;18.20;99.90;;;;;;4974704;28;20058;-84
2023/09/08 01:04:16;;;;;;;3.55;3.35;;;18.20;99.90;;;;;;4971113;28;20042;-85
2023/09/08 01:06:42;;;;;;;3.78;3.55;;;18.20;99.90;;;;;;4986000;28;20042;-85
2023/09/08 01:09:09;;;;;;;4.57;4.28;;;18.20;99.90;;;;;;4987801;28;20054;-84
2023/09/08 01:11:35;;;;;;;4.25;3.95;;;18.20;99.90;;;;;;4974429;28;20046;-84
2023/09/08 01:14:01;;;;;;;4.00;3.75;;;18.20;99.90;;;;;;4987289;28;20054;-85
2023/09/08 01:16:26;;;;;;;3.90;3.67;;;18.30;99.90;;;;;;4982477;28;20064;-85
2023/09/08 01:18:53;;;;;;;3.85;3.63;;;18.20;99.90;;;;;;4982827;28;20053;-84
2023/09/08 01:21:51;;;;;;;4.43;4.13;;;18.10;99.90;;;;;;4986032;28;20085;-83
2023/09/08 01:24:34;;;;;;;4.15;3.88;;;18.10;99.90;;;;;;4983802;28;20056;-83
2023/09/08 01:27:01;;;;;;;4.05;3.80;;;17.80;99.90;;;;;;4979834;28;20058;-83
2023/09/08 01:29:29;;;;;;;3.88;3.65;;;17.90;99.90;;;;;;4981092;28;20531;-84
2023/09/08 01:31:55;;;;;;;4.25;3.95;;;17.90;99.90;;;;;;4986866;28;20511;-84
2023/09/08 01:34:21;;;;;;;4.25;3.95;;;17.90;99.90;;;;;;4987527;28;20049;-83
2023/09/08 01:36:47;;;;;;;4.45;4.15;;;17.90;99.90;;;;;;4986313;28;20309;-83
2023/09/08 01:39:13;;;;;;;4.85;4.55;;;17.90;99.90;;;;;;4985118;28;20042;-83
2023/09/08 01:41:39;;;;;;;4.57;4.28;;;18.00;99.90;;;;;;4967652;28;20038;-83
2023/09/08 01:44:07;;;;;;;4.85;4.55;;;18.00;99.90;;;;;;4981235;28;20053;-83
2023/09/08 01:46:34;;;;;;;4.60;4.30;;;18.00;99.90;;;;;;4985909;28;20121;-83
2023/09/08 01:49:00;;;;;;;4.75;4.45;;;17.90;99.90;;;;;;4983689;28;20045;-83
2023/09/08 01:51:25;;;;;;;4.90;4.60;;;17.80;99.90;;;;;;4982709;28;20570;-83
2023/09/08 01:53:51;;;;;;;5.13;4.82;;;17.80;99.90;;;;;;4983084;28;21026;-82
2023/09/08 01:56:16;;;;;;;5.03;4.72;;;17.80;99.90;;;;;;4984926;28;20115;-83
2023/09/08 01:58:42;;;;;;;5.40;5.03;;;17.70;99.90;;;;;;4982431;28;20073;-83
2023/09/08 02:01:08;;;;;;;5.65;5.25;;;17.80;99.90;;;;;;4986601;28;20046;-83
2023/09/08 02:03:33;;;;;;;5.85;5.45;;;17.70;99.90;;;;;;4984194;28;20088;-84
2023/09/08 02:05:59;;;;;;;5.88;5.47;;;17.70;99.90;;;;;;4982356;28;20050;-83
2023/09/08 02:08:25;;;;;;;5.70;5.30;;;17.60;99.90;;;;;;4983693;28;20181;-83
2023/09/08 02:10:50;;;;;;;5.68;5.28;;;17.50;99.90;;;;;;4970619;28;20635;-84
2023/09/08 02:13:16;;;;;;;5.85;5.45;;;17.50;99.90;;;;;;4968431;28;20051;-83
2023/09/08 02:15:41;;;;;;;5.78;5.38;;;17.50;99.90;;;;;;4983444;28;20046;-84
2023/09/08 02:18:07;;;;;;;5.55;5.15;;;17.40;99.90;;;;;;5001443;28;20041;-83
2023/09/08 02:20:33;;;;;;;5.38;4.97;;;17.50;99.90;;;;;;4987318;28;20530;-83
2023/09/08 02:23:05;;;;;;;5.70;5.30;;;17.40;99.90;;;;;;4989780;28;20057;-83
2023/09/08 02:25:30;;;;;;;5.60;5.20;;;17.40;99.90;;;;;;4987922;28;20633;-83
2023/09/08 02:27:56;;;;;;;5.35;4.97;;;17.40;99.90;;;;;;4983694;28;20045;-84
2023/09/08 02:30:22;;;;;;;5.38;4.97;;;17.40;99.90;;;;;;5000741;28;20050;-84
2023/09/08 02:32:47;;;;;;;5.30;4.95;;;17.40;99.90;;;;;;4984978;28;20141;-83
2023/09/08 02:35:13;;;;;;;5.20;4.90;;;17.60;99.90;;;;;;4982736;28;20088;-83
2023/09/08 02:37:39;;;;;;;4.72;4.43;;;17.70;99.90;;;;;;4985482;28;20045;-83
2023/09/08 02:40:06;;;;;;;5.03;4.72;;;17.60;99.90;;;;;;4981228;28;20061;-83
2023/09/08 02:42:32;;;;;;;4.32;4.03;;;17.80;99.90;;;;;;4984658;28;20104;-83
2023/09/08 02:44:57;;;;;;;4.43;4.13;;;17.70;99.90;;;;;;4967477;28;20053;-84
2023/09/08 02:47:23;;;;;;;4.75;4.45;;;17.70;99.90;;;;;;4981457;28;20053;-86
2023/09/08 02:49:49;;;;;;;4.43;4.13;;;17.70;99.90;;;;;;4984426;28;20054;-85
2023/09/08 02:52:14;;;;;;;4.53;4.22;;;17.70;99.90;;;;;;4985672;28;20049;-85
2023/09/08 02:54:40;;;;;;;4.35;4.05;;;17.80;99.90;;;;;;4985398;28;20045;-84
2023/09/08 02:57:06;;;;;;;4.43;4.13;;;17.80;99.90;;;;;;4985186;28;20128;-84
2023/09/08 02:59:32;;;;;;;4.35;4.05;;;17.90;99.90;;;;;;4983856;28;20495;-84
2023/09/08 03:01:59;;;;;;;4.28;3.97;;;17.70;99.90;;;;;;4983824;28;20072;-83
2023/09/08 03:04:25;;;;;;;4.07;3.80;;;17.70;99.90;;;;;;4993678;28;20073;-83
2023/09/08 03:06:50;;;;;;;3.78;3.58;;;17.70;99.90;;;;;;4984577;28;20640;-84
2023/09/08 03:09:16;;;;;;;3.85;3.65;;;17.60;99.90;;;;;;4984965;28;20045;-83
2023/09/08 03:11:42;;;;;;;3.58;3.38;;;17.60;99.90;;;;;;4985060;28;20041;-83
2023/09/08 03:14:07;;;;;;;3.90;3.70;;;17.60;99.90;;;;;;4985958;28;20073;-82
2023/09/08 03:16:33;;;;;;;3.88;3.67;;;17.60;99.90;;;;;;4985729;28;20446;-84
2023/09/08 03:18:59;;;;;;;3.80;3.60;;;17.50;99.90;;;;;;4983620;28;20046;-84
2023/09/08 03:21:24;;;;;;;4.15;3.85;;;17.40;99.90;;;;;;4985699;28;20049;-83
2023/09/08 03:23:50;;;;;;;4.25;3.95;;;17.30;99.90;;;;;;4983772;28;20053;-85
2023/09/08 03:26:16;;;;;;;3.58;3.38;;;17.30;99.90;;;;;;4964077;28;20045;-84
2023/09/08 03:28:42;;;;;;;3.65;3.45;;;17.20;99.90;;;;;;4983725;28;20041;-83
2023/09/08 03:31:08;;;;;;;3.42;3.22;;;17.20;99.90;;;;;;4967885;28;20578;-83
2023/09/08 03:33:34;;;;;;;3.50;3.30;;;17.10;99.90;;;;;;5001542;28;20046;-85
2023/09/08 03:36:02;;;;;;;4.00;3.75;;;17.10;99.90;;;;;;4983148;28;20129;-84
2023/09/08 03:38:27;;;;;;;3.30;3.10;;;17.00;99.90;;;;;;5005992;28;20431;-84
2023/09/08 03:40:53;;;;;;;3.53;3.33;;;16.90;99.90;;;;;;4984610;28;20060;-84
2023/09/08 03:43:19;;;;;;;3.65;3.45;;;16.80;99.90;;;;;;4966423;28;20043;-83
2023/09/08 03:45:44;;;;;;;3.85;3.65;;;16.80;99.90;;;;;;4966911;28;20042;-83
2023/09/08 03:48:10;;;;;;;3.60;3.40;;;16.80;99.90;;;;;;4984031;28;20042;-84
2023/09/08 03:50:36;;;;;;;3.50;3.30;;;16.70;99.90;;;;;;4983356;28;20052;-84
2023/09/08 03:53:01;;;;;;;3.50;3.30;;;16.70;99.90;;;;;;4983434;28;20041;-83
2023/09/08 03:55:27;;;;;;;3.30;3.10;;;16.60;99.90;;;;;;4985661;28;20076;-83
2023/09/08 03:57:53;;;;;;;3.20;3.00;;;16.60;99.90;;;;;;4984421;28;20056;-84
2023/09/08 04:00:21;;;;;;;3.00;2.80;;;16.60;99.90;;;;;;4982419;28;20107;-82
2023/09/08 04:02:48;;;;;;;2.60;2.50;;;16.60;99.90;;;;;;4984135;28;20042;-85
2023/09/08 04:05:15;;;;;;;2.60;2.50;;;16.50;99.90;;;;;;4984381;28;20056;-84
2023/09/08 04:07:41;;;;;;;2.30;2.20;;;16.60;99.90;;;;;;4982512;28;20415;-85
2023/09/08 04:10:07;;;;;;;2.10;2.00;;;16.60;99.90;;;;;;4985154;28;20038;-83
2023/09/08 04:12:33;;;;;;;2.00;1.90;;;16.50;99.90;;;;;;4999566;28;20056;-84
2023/09/08 04:14:58;;;;;;;2.03;1.92;;;16.60;99.90;;;;;;4984036;28;20053;-84
2023/09/08 04:17:24;;;;;;;1.80;1.70;;;16.60;99.90;;;;;;4989534;28;20129;-84
2023/09/08 04:19:49;;;;;;;1.73;1.63;;;16.50;99.90;;;;;;4987630;28;20050;-83
2023/09/08 04:22:15;;;;;;;1.80;1.70;;;16.60;99.90;;;;;;4988238;28;20092;-82
2023/09/08 04:24:41;;;;;;;1.73;1.63;;;16.60;99.90;;;;;;4990504;28;20088;-83
2023/09/08 04:27:08;;;;;;;1.63;1.52;;;16.60;99.90;;;;;;4987004;28;20100;-83
2023/09/08 04:29:34;;;;;;;1.60;1.50;;;16.60;99.90;;;;;;4986316;28;20466;-83
2023/09/08 04:32:08;;;;;;;1.60;1.50;;;16.50;99.90;;;;;;4985368;28;20057;-81
2023/09/08 04:34:40;;;;;;;;;;;16.60;99.90;;;;;;4989046;28;20046;-84
2023/09/08 04:37:07;;;;;;;1.40;1.35;;;16.60;99.90;;;;;;4986895;28;19925;-83
2023/09/08 04:39:33;;;;;;;1.30;1.30;;;16.50;99.90;;;;;;4990116;28;20543;-83
2023/09/08 04:41:59;;;;;;;1.30;1.30;;;16.50;99.90;;;;;;4988747;28;20100;-84
2023/09/08 04:44:25;;;;;;;1.30;1.30;;;16.50;99.90;;;;;;4971741;28;20119;-84
2023/09/08 04:46:51;;;;;;;1.27;1.27;;;16.50;99.90;;;;;;4988545;28;20058;-84
2023/09/08 04:49:17;;;;;;;1.30;1.30;;;16.30;99.90;;;;;;4986955;28;20057;-84
2023/09/08 04:51:43;;;;;;;1.23;1.23;;;16.40;99.90;;;;;;4985209;28;20475;-83
2023/09/08 04:54:09;;;;;;;1.30;1.30;;;16.50;99.90;;;;;;4989984;28;20565;-84
2023/09/08 04:56:35;;;;;;;1.20;1.20;;;16.40;99.90;;;;;;4984981;28;20161;-83
2023/09/08 04:59:01;;;;;;;1.20;1.20;;;16.30;99.90;;;;;;4988553;28;20407;-85
2023/09/08 05:01:27;;;;;;;1.40;1.30;;;16.30;99.90;;;;;;4970665;28;20425;-84
2023/09/08 05:03:53;;;;;;;1.20;1.20;;;16.30;99.90;;;;;;4974315;28;20050;-85
2023/09/08 05:06:19;;;;;;;1.20;1.20;;;16.30;99.90;;;;;;4973902;28;20132;-83
2023/09/08 05:08:45;;;;;;;1.20;1.20;;;16.30;99.90;;;;;;4987700;28;20132;-84
2023/09/08 05:11:11;;;;;;;1.20;1.20;;;16.30;99.90;;;;;;4988178;28;20049;-84
2023/09/08 05:13:36;;;;;;;1.20;1.20;;;16.30;99.90;;;;;;5002007;28;20411;-83
2023/09/08 05:16:10;;;;;;;1.20;1.20;;;16.30;99.90;;;;;;4984729;28;20038;-84
2023/09/08 05:18:39;;;;;;;1.20;1.20;;;16.40;99.90;;;;;;4984458;28;20527;-83
2023/09/08 05:21:05;;;;;;;1.15;1.15;;;16.40;99.90;;;;;;5004455;28;20046;-86
2023/09/08 05:23:31;;;;;;;1.17;1.17;;;16.40;99.90;;;;;;4988712;28;20073;-84
2023/09/08 05:25:57;;;;;;;1.05;1.05;;;16.60;99.90;;;;;;4988921;28;20128;-83
2023/09/08 05:28:23;;;;;;;1.00;1.00;;;17.10;99.90;;;;;;4985539;28;20053;-83
2023/09/08 05:30:52;;;;;;;1.00;1.00;;;18.00;99.90;;;;;;4992762;28;20065;-85
2023/09/08 05:33:18;;;;;;;0.95;0.95;;;18.80;99.90;;;;;;4988816;28;20080;-82
2023/09/08 05:35:45;;;;;;;1.05;1.05;;;19.40;99.90;;;;;;4986619;28;20042;-84
2023/09/08 05:38:10;;;;;;;1.08;1.08;;;19.70;99.90;;;;;;4982990;28;20058;-84
2023/09/08 05:40:36;;;;;;;1.38;1.35;;;20.20;99.90;;;;;;5012378;28;20055;-83
2023/09/08 05:43:02;;;;;;;1.20;1.20;;;20.20;99.90;;;;;;4983865;28;20046;-86
2023/09/08 05:45:27;;;;;;;1.30;1.30;;;20.70;99.90;;;;;;4969011;28;20049;-83
2023/09/08 05:47:53;;;;;;;1.13;1.13;;;21.00;99.90;;;;;;5002620;28;20046;-84
2023/09/08 05:50:19;;;;;;;1.20;1.20;;;20.50;99.90;;;;;;4975137;28;20066;-84
2023/09/08 05:52:44;;;;;;;1.35;1.30;;;19.20;99.90;;;;;;4984601;28;20515;-85
2023/09/08 05:55:10;;;;;;;1.20;1.20;;;18.70;99.90;;;;;;4990070;28;20052;-85
2023/09/08 05:57:36;;;;;;;1.20;1.20;;;18.40;99.90;;;;;;4988673;28;20045;-83
2023/09/08 06:00:04;;;;;;;1.20;1.20;;;18.40;99.90;;;;;;4983589;28;20058;-85
2023/09/08 06:02:29;;;;;;;1.20;1.20;;;18.40;99.90;;;;;;4986439;28;20137;-84
2023/09/08 06:04:56;;;;;;;1.20;1.20;;;18.40;99.90;;;;;;4988713;28;20495;-82
2023/09/08 06:07:22;;;;;;;1.00;1.00;;;18.40;99.90;;;;;;4988338;28;20389;-86
2023/09/08 06:09:47;;;;;;;1.13;1.13;;;18.40;99.90;;;;;;4985993;28;20053;-81
2023/09/08 06:12:13;;;;;;;1.13;1.13;;;18.60;99.90;;;;;;4986781;28;20092;-84
2023/09/08 06:14:39;;;;;;;1.10;1.10;;;18.60;99.90;;;;;;4986230;28;20050;-82
2023/09/08 06:17:04;;;;;;;1.08;1.08;;;18.70;99.90;;;;;;5003261;28;20077;-82
2023/09/08 06:19:30;;;;;;;0.93;0.93;;;18.70;99.90;;;;;;5004636;28;20049;-84
2023/09/08 06:21:55;;;;;;;1.17;1.17;;;18.80;99.90;;;;;;4987816;28;20061;-81
2023/09/08 06:24:21;;;;;;;1.00;1.00;;;18.90;99.90;;;;;;4989472;28;20050;-84
2023/09/08 06:26:47;;;;;;;1.00;1.00;;;18.80;99.90;;;;;;4968533;28;20178;-82
2023/09/08 06:29:12;;;;;;;1.08;1.08;;;19.00;99.90;;;;;;4990472;28;20042;-82
2023/09/08 06:31:38;;;;;;;1.20;1.20;;;19.10;99.90;;;;;;4984346;28;20053;-83
2023/09/08 06:34:04;;;;;;;1.00;1.00;;;19.20;99.90;;;;;;4988026;28;20054;-81
2023/09/08 06:36:29;;;;;;;1.00;1.00;;;19.10;99.90;;;;;;4986179;28;20519;-82
2023/09/08 06:38:55;;;;;;;1.00;1.00;;;19.20;99.90;;;;;;4987470;28;20523;-82
2023/09/08 06:41:22;;;;;;;0.95;0.95;;;19.20;99.90;;;;;;4986145;28;20057;-81
2023/09/08 06:43:48;;;;;;;1.02;1.02;;;19.30;99.90;;;;;;4991099;28;20672;-82
2023/09/08 06:46:14;;;;;;;1.00;1.00;;;19.40;99.90;;;;;;4985929;28;20061;-82
2023/09/08 06:48:39;;;;;;;1.00;1.00;;;19.50;99.90;;;;;;4967027;28;20073;-83
2023/09/08 06:51:05;;;;;;;1.10;1.10;;;19.70;99.90;;;;;;4987322;28;20388;-81
2023/09/08 06:53:31;;;;;;;1.08;1.08;;;19.80;99.90;;;;;;4972671;28;20380;-81
2023/09/08 06:55:56;;;;;;;1.15;1.15;;;20.00;99.90;;;;;;4985519;28;20053;-81
2023/09/08 06:58:22;;;;;;;1.20;1.20;;;19.90;99.90;;;;;;5001962;28;20092;-82
2023/09/08 07:00:49;;;;;;;1.17;1.17;;;20.00;99.90;;;;;;4989954;28;20136;-81
2023/09/08 07:03:15;;;;;;;1.25;1.25;;;20.10;99.90;;;;;;4986979;28;20614;-81
2023/09/08 07:05:41;;;;;;;1.15;1.15;;;20.20;99.90;;;;;;4983475;28;20058;-82
2023/09/08 07:08:06;;;;;;;1.27;1.27;;;20.40;99.90;;;;;;4995152;28;20132;-81
2023/09/08 07:10:32;;;;;;;1.63;1.52;;;20.60;99.90;;;;;;4983872;28;20045;-81
2023/09/08 07:12:58;;;;;;;1.88;1.77;;;20.60;99.90;;;;;;4969559;28;20053;-80
2023/09/08 07:15:23;;;;;;;1.65;1.55;;;20.70;99.90;;;;;;4986157;28;20049;-81
2023/09/08 07:17:49;;;;;;;1.50;1.42;;;20.90;99.90;;;;;;4970860;28;20054;-82
2023/09/08 07:20:15;;;;;;;1.60;1.50;;;21.00;99.90;;;;;;4985172;28;20046;-80
2023/09/08 07:22:41;;;;;;;1.35;1.33;;;21.10;99.90;;;;;;4981657;28;20107;-81
2023/09/08 07:25:07;;;;;;;1.20;1.20;;;21.30;99.90;;;;;;5002311;28;20070;-81
2023/09/08 07:27:33;;;;;;;1.10;1.10;;;21.50;99.90;;;;;;4985017;28;20491;-83
2023/09/08 07:29:59;;;;;;;1.17;1.17;;;21.60;99.90;;;;;;4970728;28;20104;-83
2023/09/08 07:32:24;;;;;;;1.42;1.38;;;21.80;99.90;;;;;;4983209;28;20042;-84
2023/09/08 07:34:54;;;;;;;1.25;1.25;;;21.80;99.90;;;;;;4993434;28;20054;-81
2023/09/08 07:37:24;;;;;;;1.20;1.20;;;22.00;99.90;;;;;;4983804;28;20514;-83
2023/09/08 07:39:52;;;;;;;1.10;1.10;;;22.10;99.90;;;;;;4989325;28;20507;-83
2023/09/08 07:42:18;;;;;;;1.20;1.20;;;22.10;99.90;;;;;;4988262;28;20057;-83
2023/09/08 07:44:45;;;;;;;0.98;0.98;;;22.40;99.90;;;;;;4984390;28;20128;-82
2023/09/08 07:47:10;;;;;;;0.98;0.98;;;22.50;99.90;;;;;;4984988;28;20096;-80
2023/09/08 07:49:36;;;;;;;0.82;0.82;;;22.70;99.90;;;;;;5008039;28;20045;-82
2023/09/08 07:52:04;;;;;;;0.88;0.88;;;22.70;99.90;;;;;;4990916;28;20121;-83
2023/09/08 07:54:30;;;;;;;0.85;0.85;;;23.10;99.90;;;;;;4993109;28;20353;-82
2023/09/08 07:56:56;;;;;;;0.85;0.85;;;23.20;99.90;;;;;;4990346;28;20100;-83
2023/09/08 07:59:21;;;;;;;0.85;0.85;;;23.20;99.90;;;;;;4985998;28;20045;-83
2023/09/08 08:01:47;;;;;;;0.75;0.75;;;23.50;99.90;;;;;;4992121;28;20129;-83
2023/09/08 08:04:13;;;;;;;0.77;0.77;;;23.60;99.90;;;;;;4989251;28;21879;-84
2023/09/08 08:06:38;;;;;;;0.57;0.57;;;23.90;99.90;;;;;;4985714;28;20124;-85
2023/09/08 08:09:04;;;;;;;0.32;0.32;;;24.10;99.90;;;;;;4978466;28;20033;-84
2023/09/08 08:11:30;;;;;;;0.73;0.73;;;24.20;99.90;;;;;;4986757;28;20077;-85
2023/09/08 08:13:56;;;;;;;0.30;0.30;;;24.30;99.90;;;;;;4993450;28;20050;-84
2023/09/08 08:16:22;;;;;;;0.35;0.35;;;24.40;99.90;;;;;;4986171;28;20121;-84
2023/09/08 08:18:48;;;;;;;0.50;0.50;;;24.60;99.90;;;;;;4989222;28;20515;-85
2023/09/08 08:21:14;;;;;;;0.30;0.30;;;24.80;99.90;;;;;;5007418;28;20131;-85
2023/09/08 08:23:40;;;;;;;0.38;0.38;;;24.90;99.90;;;;;;4987677;28;20065;-84
2023/09/08 08:26:06;;;;;;;0.30;0.30;;;25.10;99.90;;;;;;4990364;28;20049;-84
2023/09/08 08:28:32;;;;;;;0.30;0.30;;;25.10;99.90;;;;;;4989454;28;20045;-85
2023/09/08 08:30:58;;;;;;;0.30;0.30;;;25.20;99.90;;;;;;4990453;28;20053;-86
2023/09/08 08:33:25;;;;;;;0.30;0.30;;;25.30;99.90;;;;;;4988142;28;20038;-86
2023/09/08 08:35:52;;;;;;;0.30;0.30;;;25.40;99.90;;;;;;4987961;28;20050;-85
2023/09/08 08:38:18;;;;;;;0.30;0.30;;;25.50;99.90;;;;;;4986440;28;20057;-88
2023/09/08 08:40:44;;;;;;;0.50;0.50;;;25.60;99.90;;;;;;4991638;28;20041;-86
2023/09/08 08:43:10;;;;;;;0.30;0.30;;;25.60;99.90;;;;;;4990363;28;20048;-86
2023/09/08 08:45:38;;;;;;;0.30;0.30;;;25.80;99.90;;;;;;4988109;28;20045;-82
2023/09/08 08:48:08;;;;;;;0.30;0.30;;;26.10;99.90;;;;;;4988306;28;20092;-84
2023/09/08 08:50:35;;;;;;;0.30;0.30;;;26.20;99.90;;;;;;5011323;28;20050;-83
2023/09/08 08:53:02;;;;;;;0.30;0.30;;;26.30;99.90;;;;;;4989481;28;20103;-84
2023/09/08 08:55:30;;;;;;;0.30;0.30;;;26.40;99.90;;;;;;4987049;28;20062;-85
2023/09/08 08:58:03;;;;;;;0.30;0.30;;;26.20;99.90;;;;;;4986700;28;20133;-86
2023/09/08 09:00:29;;;;;;;0.20;0.20;;;26.40;99.90;;;;;;4988095;28;20046;-87
2023/09/08 09:02:57;;;;;;;0.30;0.30;;;26.50;99.90;;;;;;4992098;28;20053;-82
2023/09/08 09:05:24;;;;;;;0.30;0.30;;;26.60;99.90;;;;;;4988332;28;20180;-85
2023/09/08 09:07:51;;;;;;;0.30;0.30;;;26.60;99.90;;;;;;4988658;28;20103;-81
2023/09/08 09:10:17;;;;;;;0.30;0.30;;;26.80;99.90;;;;;;4990362;28;20049;-86
2023/09/08 09:12:43;;;;;;;0.30;0.30;;;26.90;99.90;;;;;;4989633;28;20493;-85
2023/09/08 09:15:09;;;;;;;0.30;0.30;;;26.90;99.90;;;;;;4987958;28;20061;-85
2023/09/08 09:17:35;;;;;;;0.30;0.30;;;27.10;99.90;;;;;;4990254;28;20058;-82
2023/09/08 09:20:17;;;;;;;0.30;0.30;;;27.20;99.90;;;;;;4987806;28;20484;-85
2023/09/08 09:22:47;;;;;;;0.30;0.30;;;27.20;99.90;;;;;;4977645;28;20060;-85
2023/09/08 09:25:30;;;;;;;0.30;0.30;;;27.50;99.90;;;;;;5006622;28;20135;-86
2023/09/08 09:27:59;;;;;;;0.30;0.30;;;27.50;99.90;;;;;;4986774;28;20050;-85
2023/09/08 09:30:25;;;;;;;0.30;0.30;;;27.60;99.90;;;;;;4971044;28;20597;-83
2023/09/08 09:33:04;;;;;;;0.30;0.30;;;27.50;99.90;;;;;;4995279;28;20050;-84
2023/09/08 09:35:52;;;;;;;0.30;0.30;;;27.50;99.90;;;;;;4989075;28;20081;-88
2023/09/08 09:38:20;;;;;;;0.30;0.30;;;27.60;99.90;;;;;;4971145;28;20049;-85
2023/09/08 09:40:47;;;;;;;0.30;0.30;;;27.70;99.90;;;;;;4990679;28;20046;-83
2023/09/08 09:43:14;;;;;;;0.30;0.30;;;28.00;99.90;;;;;;4988974;28;20038;-87
2023/09/08 09:45:42;;;;;;;0.30;0.30;;;28.10;99.90;;;;;;4990064;28;20041;-86
2023/09/08 09:48:09;;;;;;;0.30;0.30;;;27.90;99.90;;;;;;4972388;28;20045;-86
2023/09/08 09:50:40;;;;;;;0.30;0.30;;;28.30;99.90;;;;;;4985661;28;20045;-84
2023/09/08 09:53:14;;;;;;;0.30;0.30;;;28.10;99.90;;;;;;4991776;28;20061;-84
2023/09/08 09:55:42;;;;;;;0.30;0.30;;;28.30;99.90;;;;;;4998626;28;20073;-87
2023/09/08 09:58:10;;;;;;;0.30;0.30;;;28.40;99.90;;;;;;4991675;28;20137;-84
2023/09/08 10:00:47;;;;;;;0.30;0.30;;;28.60;99.90;;;;;;4989804;28;20056;-87
2023/09/08 10:03:14;;;;;;;0.28;0.28;;;28.80;99.90;;;;;;4991281;28;20104;-86
2023/09/08 10:05:39;;;;;;;0.20;0.20;;;28.70;99.90;;;;;;4991975;28;20076;-84
2023/09/08 10:08:06;;;;;;;0.20;0.20;;;28.50;99.90;;;;;;4987872;28;20061;-85
2023/09/08 10:10:34;;;;;;;0.20;0.20;;;28.70;99.90;;;;;;4990025;28;20045;-83
2023/09/08 10:13:05;;;;;;;0.30;0.30;;;28.70;99.90;;;;;;4987958;28;20089;-86
2023/09/08 10:15:31;;;;;;;0.30;0.30;;;29.00;99.90;;;;;;4973126;28;20046;-83
2023/09/08 10:17:58;;;;;;;0.30;0.30;;;29.00;99.90;;;;;;4990628;28;20050;-84
2023/09/08 10:20:25;;;;;;;0.30;0.30;;;28.80;99.90;;;;;;4988356;28;20072;-82
2023/09/08 10:23:24;;;;;;;0.20;0.20;;;28.80;99.90;;;;;;5011915;28;20053;-84
2023/09/08 10:25:56;;;;;;;0.20;0.20;;;29.00;99.90;;;;;;4980849;28;20066;-84
2023/09/08 10:28:22;;;;;;;0.20;0.20;;;29.40;99.90;;;;;;4986809;28;20046;-85
2023/09/08 10:30:49;;;;;;;0.30;0.30;;;29.70;99.90;;;;;;4987010;28;20085;-85
2023/09/08 10:33:16;;;;;;;0.20;0.20;;;29.80;99.90;;;;;;4988733;28;20049;-84
2023/09/08 10:35:42;;;;;;;0.20;0.20;;;29.70;99.90;;;;;;4987331;28;20048;-85
2023/09/08 10:38:28;;;;;;;0.20;0.20;;;30.00;99.90;;;;;;4988251;28;20054;-83
2023/09/08 10:41:31;;;;;;;0.25;0.25;;;29.90;99.90;;;;;;4987152;28;20052;-85
2023/09/08 10:44:08;;;;;;;0.20;0.20;;;30.00;99.90;;;;;;4892568;29;20720;-85
2023/09/08 10:46:34;;;;;;;0.30;0.30;;;30.10;99.90;;;;;;4973961;28;20140;-85
2023/09/08 10:49:07;;;;;;;0.30;0.30;;;29.80;99.90;;;;;;4988045;28;20196;-86
2023/09/08 10:51:34;;;;;;;0.20;0.20;;;29.70;99.90;;;;;;4988649;28;20475;-84
2023/09/08 10:54:01;;;;;;;0.30;0.30;;;30.10;99.90;;;;;;5006784;28;20529;-84
2023/09/08 10:56:54;;;;;;;0.30;0.30;;;29.80;99.90;;;;;;4985301;28;20050;-86
2023/09/08 10:59:20;;;;;;;0.25;0.25;;;29.70;99.90;;;;;;4970181;28;20586;-85
2023/09/08 11:01:47;;;;;;;0.22;0.22;;;29.80;99.90;;;;;;4986888;28;20132;-86
2023/09/08 11:04:14;;;;;;;0.30;0.30;;;29.80;99.90;;;;;;4969925;28;20073;-86
2023/09/08 11:06:39;;;;;;;0.30;0.30;;;29.70;99.90;;;;;;4972338;28;20140;-84
2023/09/08 11:09:09;;;;;;;0.20;0.20;;;30.10;99.90;;;;;;4986862;28;20137;-85
2023/09/08 11:11:36;;;;;;;0.30;0.30;;;30.10;99.90;;;;;;4986571;28;20061;-86
2023/09/08 11:14:02;;;;;;;0.30;0.30;;;30.00;99.90;;;;;;4985394;28;20124;-84
2023/09/08 11:16:31;;;;;;;0.30;0.30;;;29.70;99.90;;;;;;5007635;28;20057;-85
2023/09/08 11:18:57;;;;;;;0.20;0.20;;;30.00;99.90;;;;;;4989282;28;20060;-87
2023/09/08 11:21:23;;;;;;;0.20;0.20;;;30.10;99.90;;;;;;4987287;28;20042;-87
2023/09/08 11:23:49;;;;;;;0.30;0.30;;;30.00;99.90;;;;;;4988002;28;20125;-84
2023/09/08 11:26:14;;;;;;;0.28;0.28;;;29.80;99.90;;;;;;4985466;28;20053;-85
2023/09/08 11:28:41;;;;;;;0.30;0.30;;;30.00;99.90;;;;;;4986308;28;20058;-83
2023/09/08 11:31:07;;;;;;;0.20;0.20;;;30.20;99.90;;;;;;4970046;28;20046;-83
2023/09/08 11:33:38;;;;;;;0.30;0.30;;;30.00;99.90;;;;;;4969045;28;20041;-85
2023/09/08 11:36:13;;;;;;;0.22;0.22;;;30.20;99.90;;;;;;4970495;28;20038;-86
2023/09/08 11:38:38;;;;;;;0.30;0.30;;;30.20;99.90;;;;;;4985972;28;20046;-85
2023/09/08 11:41:04;;;;;;;0.30;0.30;;;30.60;99.90;;;;;;4985222;28;20049;-87
2023/09/08 11:43:32;;;;;;;0.30;0.30;;;30.80;99.90;;;;;;4987166;28;20054;-87
2023/09/08 11:45:59;;;;;;;0.30;0.30;;;31.00;99.90;;;;;;4969821;28;20156;-87
2023/09/08 11:48:25;;;;;;;0.30;0.30;;;30.70;99.90;;;;;;4985527;28;21471;-84
2023/09/08 11:50:53;;;;;;;0.20;0.20;;;30.60;99.90;;;;;;4986012;28;20515;-86
2023/09/08 11:53:23;;;;;;;0.30;0.30;;;31.00;99.90;;;;;;4976892;28;20045;-86
2023/09/08 11:55:49;;;;;;;0.20;0.20;;;31.20;99.90;;;;;;4970344;28;20061;-83
2023/09/08 11:58:16;;;;;;;0.20;0.20;;;30.70;99.90;;;;;;5005755;28;20045;-84
2023/09/08 12:00:42;;;;;;;0.28;0.28;;;30.90;99.90;;;;;;4986598;28;20092;-86
2023/09/08 12:03:13;;;;;;;0.30;0.30;;;31.10;99.90;;;;;;4969303;28;20046;-86
2023/09/08 12:05:43;;;;;;;0.20;0.20;;;31.30;99.90;;;;;;4988727;28;20605;-86
2023/09/08 12:08:08;;;;;;;0.30;0.30;;;31.50;99.90;;;;;;4990084;28;20554;-87
2023/09/08 12:10:41;;;;;;;0.30;0.30;;;31.70;99.90;;;;;;4975876;28;20045;-88
2023/09/08 12:13:07;;;;;;;0.20;0.20;;;31.60;99.90;;;;;;4970739;28;20044;-83
2023/09/08 12:15:34;;;;;;;0.30;0.30;;;31.20;99.90;;;;;;4987843;28;20046;-84
2023/09/08 12:18:04;;;;;;;0.20;0.20;;;31.20;99.90;;;;;;4983596;28;20057;-85
2023/09/08 12:20:30;;;;;;;0.30;0.30;;;30.80;99.90;;;;;;4970008;28;20058;-87
2023/09/08 12:23:02;;;;;;;0.20;0.20;;;31.00;99.90;;;;;;4986433;28;20407;-85
2023/09/08 12:25:28;;;;;;;0.20;0.20;;;31.00;99.90;;;;;;4987490;28;20080;-83
2023/09/08 12:27:56;;;;;;;0.25;0.25;;;31.40;99.90;;;;;;4985709;28;20471;-86
2023/09/08 12:30:32;;;;;;;0.30;0.30;;;31.80;99.90;;;;;;4983890;28;20553;-87
2023/09/08 12:33:02;;;;;;;0.28;0.28;;;31.80;99.90;;;;;;4971942;28;20042;-85
2023/09/08 12:35:28;;;;;;;0.25;0.25;;;31.60;99.90;;;;;;4986374;28;20054;-86
2023/09/08 12:38:02;;;;;;;0.30;0.30;;;31.50;99.90;;;;;;4988529;28;20058;-85
2023/09/08 12:40:30;;;;;;;0.30;0.30;;;31.00;99.90;;;;;;4990315;28;20197;-84
2023/09/08 12:42:56;;;;;;;0.35;0.35;;;30.90;99.90;;;;;;4989214;28;20052;-85
2023/09/08 12:45:30;;;;;;;0.30;0.30;;;30.70;99.90;;;;;;4995240;28;20042;-87